Time;durP1;ratioP1;P1;durP2;ratioP2;P2;SDS_P1;SDS_P2;PMS_P1;PMS_P2;Temp;Humidity;BMP_temperature;BMP_pressure;BME280_temperature;BME280_humidity;BME280_pressure;Samples;Min_cycle;Max_cycle;Signal;HPM_P1;HPM_P2
2024/03/29 01:43:37;;;;;;;;;;;7.20;76.20;;;;;;5070372;28;19932;-61
2024/03/29 01:46:10;;;;;;;;;;;7.20;76.00;;;;;;5095640;28;20520;-63
2024/03/29 01:48:44;;;;;;;;;;;7.20;75.80;;;;;;5096367;28;20763;-62
2024/03/29 01:51:19;;;;;;;;;;;7.30;75.80;;;;;;5096144;28;20371;-62
2024/03/29 01:53:53;;;;;;;;;;;7.30;75.50;;;;;;5091141;28;19924;-62
2024/03/29 01:56:28;;;;;;;;;;;7.30;75.20;;;;;;5093248;28;20022;-63
2024/03/29 01:59:01;;;;;;;;;;;7.30;75.10;;;;;;5092845;28;19924;-63
2024/03/29 02:01:35;;;;;;;;;;;7.40;74.80;;;;;;5096913;28;20030;-62
2024/03/29 02:04:09;;;;;;;;;;;7.40;74.80;;;;;;5095379;28;19952;-62
2024/03/29 02:07:17;;;;;;;;;;;7.40;74.70;;;;;;5096479;28;20011;-64
2024/03/29 02:09:51;;;;;;;;;;;7.50;74.80;;;;;;5096244;28;19935;-61
2024/03/29 02:12:24;;;;;;;;;;;7.50;74.50;;;;;;5093935;28;19942;-63
2024/03/29 02:14:58;;;;;;;;;;;7.50;74.30;;;;;;5095635;28;19924;-64
2024/03/29 02:17:31;;;;;;;;;;;7.50;74.20;;;;;;5095490;28;19928;-63
2024/03/29 02:20:05;;;;;;;;;;;7.60;74.10;;;;;;5094973;28;19924;-63
2024/03/29 02:22:47;;;;;;;;;;;7.60;74.00;;;;;;5095627;28;19981;-63
2024/03/29 02:25:22;;;;;;;;;;;7.60;74.00;;;;;;5094300;28;19935;-62
2024/03/29 02:27:56;;;;;;;;;;;7.60;73.80;;;;;;5093888;28;19928;-62
2024/03/29 02:30:30;;;;;;;;;;;7.60;73.90;;;;;;5096549;28;19931;-62
2024/03/29 02:33:03;;;;;;;;;;;7.50;74.20;;;;;;5097402;28;20014;-67
2024/03/29 02:35:36;;;;;;;;;;;7.40;75.00;;;;;;5093676;28;19955;-67
2024/03/29 02:38:09;;;;;;;;;;;7.40;75.20;;;;;;5098985;28;20026;-67
2024/03/29 02:40:43;;;;;;;;;;;7.40;75.20;;;;;;5102037;28;20356;-67
2024/03/29 02:43:16;;;;;;;;;;;7.50;75.00;;;;;;5095154;28;19932;-68
2024/03/29 02:45:49;;;;;;;;;;;7.40;75.20;;;;;;5099546;28;20366;-68
2024/03/29 02:48:22;;;;;;;;;;;7.40;75.10;;;;;;5100296;28;19924;-68
2024/03/29 02:50:54;;;;;;;;;;;7.50;75.10;;;;;;5098820;28;19928;-69
2024/03/29 02:53:27;;;;;;;;;;;7.50;74.70;;;;;;5098038;28;19924;-69
2024/03/29 02:56:00;;;;;;;;;;;7.50;74.60;;;;;;5100335;28;19959;-69
2024/03/29 02:58:34;;;;;;;;;;;7.50;74.40;;;;;;5101659;28;19930;-69
2024/03/29 03:01:06;;;;;;;;;;;7.50;74.20;;;;;;5098172;28;19977;-68
2024/03/29 03:03:40;;;;;;;;;;;7.50;74.20;;;;;;5098240;28;19924;-68
2024/03/29 03:06:12;;;;;;;;;;;7.60;74.10;;;;;;5100803;28;19931;-67
2024/03/29 03:11:30;;;;;;;;;;;7.60;73.80;;;;;;5094560;28;19932;-68
2024/03/29 03:14:04;;;;;;;;;;;7.60;73.70;;;;;;5100106;28;19946;-69
2024/03/29 03:16:37;;;;;;;;;;;7.60;73.70;;;;;;5098709;28;19924;-71
2024/03/29 03:19:09;;;;;;;;;;;7.60;73.60;;;;;;5098584;28;19928;-70
2024/03/29 03:21:42;;;;;;;;;;;7.70;73.50;;;;;;5098205;28;19928;-70
2024/03/29 03:24:14;;;;;;;;;;;7.70;73.40;;;;;;5099166;28;19927;-69
2024/03/29 03:26:48;;;;;;;;;;;7.70;73.30;;;;;;5098311;28;19924;-69
2024/03/29 03:29:21;;;;;;;;;;;7.60;73.30;;;;;;5096494;28;20011;-70
2024/03/29 03:31:54;;;;;;;;;;;7.70;73.30;;;;;;5095072;28;19928;-68
2024/03/29 03:34:26;;;;;;;;;;;7.70;73.20;;;;;;5097776;28;20018;-71
2024/03/29 03:36:59;;;;;;;;;;;7.70;73.20;;;;;;5099671;28;20022;-68
2024/03/29 03:39:31;;;;;;;;;;;7.70;73.10;;;;;;5098776;28;20014;-71
2024/03/29 03:42:05;;;;;;;;;;;7.70;73.20;;;;;;5099667;28;20010;-68
2024/03/29 03:44:38;;;;;;;;;;;7.70;73.10;;;;;;5096128;28;19928;-70
2024/03/29 03:47:12;;;;;;;;;;;7.70;73.30;;;;;;5095494;28;19931;-70
2024/03/29 03:49:44;;;;;;;;;;;7.70;73.50;;;;;;5098683;28;19927;-68
2024/03/29 03:52:17;;;;;;;;;;;7.70;73.40;;;;;;5099901;28;19959;-68
2024/03/29 03:54:49;;;;;;;;;;;7.70;73.70;;;;;;5099751;28;19927;-68
2024/03/29 03:57:23;;;;;;;;;;;7.70;74.20;;;;;;5093906;28;19939;-68
2024/03/29 03:59:56;;;;;;;;;;;7.70;74.80;;;;;;5094468;28;19927;-68
2024/03/29 04:02:38;;;;;;;;;;;7.70;74.50;;;;;;5099854;28;19924;-68
2024/03/29 04:05:11;;;;;;;;;;;7.70;75.00;;;;;;5100181;28;20039;-68
2024/03/29 04:07:44;;;;;;;;;;;7.70;75.40;;;;;;5100726;28;20355;-67
2024/03/29 04:10:16;;;;;;;;;;;7.70;75.60;;;;;;5099419;28;20326;-67
2024/03/29 04:12:44;;;;;;;;;;;7.70;75.50;;;;;;5100123;28;19928;-69
2024/03/29 04:15:16;;;;;;;;;;;7.70;75.90;;;;;;5099006;28;19924;-68
2024/03/29 04:17:49;;;;;;;;;;;7.70;75.60;;;;;;5096875;28;19935;-67
2024/03/29 04:20:21;;;;;;;;;;;7.60;75.50;;;;;;5098452;28;19935;-69
2024/03/29 04:22:54;;;;;;;;;;;7.60;75.60;;;;;;5099438;28;20015;-67
2024/03/29 04:25:26;;;;;;;;;;;7.60;75.60;;;;;;5098281;28;20439;-67
2024/03/29 04:28:00;;;;;;;;;;;7.70;75.70;;;;;;5101014;28;19976;-68
2024/03/29 04:30:33;;;;;;;;;;;7.70;75.80;;;;;;5100073;28;20022;-68
2024/03/29 04:33:06;;;;;;;;;;;7.70;75.90;;;;;;5096096;28;20302;-68
2024/03/29 04:35:38;;;;;;;;;;;7.70;75.80;;;;;;5100253;28;20015;-68
2024/03/29 04:38:11;;;;;;;;;;;7.70;75.80;;;;;;5099570;28;19924;-68
2024/03/29 04:40:44;;;;;;;;;;;7.70;75.80;;;;;;5099312;28;19989;-68
2024/03/29 04:43:12;;;;;;;;;;;7.70;76.20;;;;;;5099932;28;19925;-68
2024/03/29 04:45:45;;;;;;;;;;;7.70;75.80;;;;;;5095507;28;20002;-68
2024/03/29 04:48:18;;;;;;;;;;;7.70;76.40;;;;;;5099128;28;19924;-67
2024/03/29 04:50:51;;;;;;;;;;;7.70;76.30;;;;;;5098430;28;19924;-67
2024/03/29 04:53:24;;;;;;;;;;;7.70;76.60;;;;;;5098515;28;20010;-70
2024/03/29 04:55:57;;;;;;;;;;;7.70;76.90;;;;;;5100039;28;19924;-70
2024/03/29 04:58:32;;;;;;;;;;;7.70;76.90;;;;;;5096950;28;19928;-70
2024/03/29 05:01:06;;;;;;;;;;;7.70;77.30;;;;;;5092694;28;19927;-71
2024/03/29 05:03:40;;;;;;;;;;;7.70;77.50;;;;;;5080086;28;20340;-72
2024/03/29 05:06:13;;;;;;;;;;;7.70;77.50;;;;;;5097315;28;20006;-68
2024/03/29 05:08:46;;;;;;;;;;;7.70;77.90;;;;;;5098606;28;19966;-71
2024/03/29 05:11:19;;;;;;;;;;;7.70;77.90;;;;;;5097921;28;20018;-71
2024/03/29 05:13:53;;;;;;;;;;;7.70;78.00;;;;;;5096726;28;19928;-72
2024/03/29 05:16:27;;;;;;;;;;;7.70;78.10;;;;;;5095146;28;20330;-72
2024/03/29 05:19:00;;;;;;;;;;;7.70;78.40;;;;;;5098090;28;19930;-71
2024/03/29 05:21:33;;;;;;;;;;;7.70;78.70;;;;;;5097366;28;19932;-71
2024/03/29 05:24:06;;;;;;;;;;;7.80;78.90;;;;;;5096892;28;20331;-72
2024/03/29 05:26:40;;;;;;;;;;;7.80;78.40;;;;;;5095694;28;20008;-70
2024/03/29 05:29:15;;;;;;;;;;;7.80;78.50;;;;;;5096462;28;19967;-71
2024/03/29 05:31:49;;;;;;;;;;;7.80;79.30;;;;;;5096665;28;19928;-70
2024/03/29 05:34:22;;;;;;;;;;;7.80;79.50;;;;;;5097352;28;19928;-72
2024/03/29 05:36:55;;;;;;;;;;;7.80;79.60;;;;;;5096463;28;19928;-71
2024/03/29 05:39:34;;;;;;;;;;;7.80;79.70;;;;;;5098683;28;19935;-70
2024/03/29 05:42:08;;;;;;;;;;;7.70;79.50;;;;;;5098027;28;19932;-70
2024/03/29 05:44:42;;;;;;;;;;;7.70;79.70;;;;;;5097911;28;19955;-70
2024/03/29 05:47:16;;;;;;;;;;;7.70;79.80;;;;;;5092673;28;19934;-70
2024/03/29 05:49:49;;;;;;;;;;;7.70;80.00;;;;;;5098152;28;20037;-71
2024/03/29 05:52:23;;;;;;;;;;;7.70;80.60;;;;;;5094714;28;19935;-71
2024/03/29 05:54:56;;;;;;;;;;;7.70;80.60;;;;;;5098092;28;19927;-70
2024/03/29 05:57:29;;;;;;;;;;;7.70;80.80;;;;;;5084873;28;20409;-72
2024/03/29 06:00:03;;;;;;;;;;;7.70;81.10;;;;;;5083876;28;19939;-70
2024/03/29 06:02:44;;;;;;;;;;;7.70;80.70;;;;;;5086873;28;19946;-72
2024/03/29 06:05:18;;;;;;;;;;;7.70;81.30;;;;;;5088635;28;20004;-62
2024/03/29 06:07:51;;;;;;;;;;;7.80;81.00;;;;;;5088913;28;19935;-61
2024/03/29 06:10:24;;;;;;;;;;;7.80;81.20;;;;;;5084671;28;19932;-62
2024/03/29 06:12:57;;;;;;;;;;;7.80;81.30;;;;;;5092081;28;19932;-62
2024/03/29 06:18:23;;;;;;;;;;;7.80;81.70;;;;;;5087822;28;19928;-62
2024/03/29 06:20:56;;;;;;;;;;;7.90;82.00;;;;;;5087442;28;19934;-61
2024/03/29 06:23:29;;;;;;;;;;;7.90;82.50;;;;;;5090197;28;19981;-62
2024/03/29 06:26:02;;;;;;;;;;;7.90;82.30;;;;;;5090150;28;19928;-63
2024/03/29 06:28:35;;;;;;;;;;;8.00;82.60;;;;;;5088143;28;19934;-62
2024/03/29 06:31:09;;;;;;;;;;;8.00;82.20;;;;;;5090733;28;20332;-63
2024/03/29 06:33:43;;;;;;;;;;;8.00;82.80;;;;;;5086085;28;19935;-61
2024/03/29 06:36:16;;;;;;;;;;;8.00;82.40;;;;;;5092794;28;20393;-61
2024/03/29 06:38:49;;;;;;;;;;;8.00;82.50;;;;;;5089076;28;19928;-61
2024/03/29 06:41:22;;;;;;;;;;;8.00;83.00;;;;;;5092470;28;19959;-61
2024/03/29 06:43:55;;;;;;;;;;;8.00;81.60;;;;;;5091016;28;19940;-61
2024/03/29 06:46:29;;;;;;;;;;;8.00;82.30;;;;;;5086518;28;20018;-62
2024/03/29 06:49:04;;;;;;;;;;;8.00;82.70;;;;;;5091943;28;20018;-62
2024/03/29 06:51:37;;;;;;;;;;;8.00;81.90;;;;;;5091205;28;20366;-63
2024/03/29 06:54:11;;;;;;;;;;;8.00;82.10;;;;;;5092117;28;19957;-61
2024/03/29 06:56:44;;;;;;;;;;;8.00;82.30;;;;;;5090783;28;20447;-61
2024/03/29 06:59:17;;;;;;;;;;;8.10;82.90;;;;;;5086177;28;20473;-62
2024/03/29 07:01:52;;;;;;;;;;;8.10;83.20;;;;;;5085750;28;19990;-61
2024/03/29 07:04:27;;;;;;;;;;;8.00;83.00;;;;;;5085078;28;19932;-62
2024/03/29 07:07:01;;;;;;;;;;;8.00;83.40;;;;;;5089107;28;19939;-63
2024/03/29 07:09:34;;;;;;;;;;;8.10;83.60;;;;;;5083388;28;19924;-62
2024/03/29 07:12:07;;;;;;;;;;;8.10;83.30;;;;;;5090475;28;19924;-62
2024/03/29 07:14:40;;;;;;;;;;;8.00;83.10;;;;;;5094892;28;20374;-61
2024/03/29 07:17:14;;;;;;;;;;;8.10;83.30;;;;;;5088938;28;19935;-62
2024/03/29 07:19:48;;;;;;;;;;;8.10;83.20;;;;;;5089564;28;19928;-61
2024/03/29 07:22:21;;;;;;;;;;;8.10;83.50;;;;;;5082197;28;19964;-61
2024/03/29 07:24:54;;;;;;;;;;;8.10;83.30;;;;;;5086660;28;19928;-62
2024/03/29 07:27:29;;;;;;;;;;;8.20;83.20;;;;;;5101052;28;20049;-61
2024/03/29 07:30:04;;;;;;;;;;;8.20;83.30;;;;;;5089631;28;20015;-61
2024/03/29 07:32:38;;;;;;;;;;;8.20;83.50;;;;;;5093711;28;19951;-61
2024/03/29 07:35:14;;;;;;;;;;;8.20;82.70;;;;;;5094616;28;20411;-61
2024/03/29 07:37:49;;;;;;;;;;;8.30;83.60;;;;;;5088719;28;19981;-61
2024/03/29 07:40:16;;;;;;;;;;;8.30;84.40;;;;;;5088398;28;19993;-60
2024/03/29 07:42:49;;;;;;;;;;;8.30;84.10;;;;;;5089884;28;19973;-61
2024/03/29 07:45:22;;;;;;;;;;;8.30;84.20;;;;;;5075584;28;20410;-60
2024/03/29 07:47:56;;;;;;;;;;;8.40;84.10;;;;;;5092491;28;19925;-62
2024/03/29 07:50:30;;;;;;;;;;;8.40;83.60;;;;;;5094743;28;19935;-61
2024/03/29 07:53:03;;;;;;;;;;;8.40;84.30;;;;;;5093955;28;19979;-61
2024/03/29 07:55:36;;;;;;;;;;;8.40;84.20;;;;;;5094591;28;20407;-60
2024/03/29 07:58:10;;;;;;;;;;;8.40;84.00;;;;;;5091757;28;20037;-61
2024/03/29 08:00:43;;;;;;;;;;;8.40;83.40;;;;;;5092831;28;20007;-61
2024/03/29 08:03:17;;;;;;;;;;;8.40;83.70;;;;;;5089306;28;19931;-61
2024/03/29 08:05:56;;;;;;;;;;;8.50;84.40;;;;;;5092528;28;19932;-62
2024/03/29 08:08:29;;;;;;;;;;;8.60;84.40;;;;;;5093345;28;19982;-63
2024/03/29 08:11:02;;;;;;;;;;;8.60;84.50;;;;;;5093446;28;19924;-62
2024/03/29 08:13:35;;;;;;;;;;;8.60;84.70;;;;;;5092053;28;19938;-61
2024/03/29 08:16:08;;;;;;;;;;;8.70;84.20;;;;;;5089605;28;19932;-61
2024/03/29 08:18:36;;;;;;;;;;;8.70;84.10;;;;;;5091719;28;20658;-60
2024/03/29 08:21:11;;;;;;;;;;;8.70;84.40;;;;;;5087119;28;19924;-60
2024/03/29 08:23:46;;;;;;;;;;;8.70;84.60;;;;;;5092649;28;19932;-61
2024/03/29 08:26:19;;;;;;;;;;;8.70;84.50;;;;;;5091074;28;19928;-61
2024/03/29 08:28:52;;;;;;;;;;;8.70;84.90;;;;;;5092743;28;19931;-62
2024/03/29 08:31:18;;;;;;;;;;;8.70;84.40;;;;;;5094363;28;19947;-60
2024/03/29 08:33:53;;;;;;;;;;;8.70;84.60;;;;;;5090595;28;19932;-61
2024/03/29 08:36:27;;;;;;;;;;;8.70;84.30;;;;;;5088774;28;19963;-62
2024/03/29 08:39:00;;;;;;;;;;;8.80;84.50;;;;;;5090521;28;19927;-62
2024/03/29 08:41:33;;;;;;;;;;;8.80;84.00;;;;;;5090601;28;20386;-61
2024/03/29 08:44:08;;;;;;;;;;;8.80;84.30;;;;;;5093062;28;20023;-62
2024/03/29 08:46:41;;;;;;;;;;;8.80;85.00;;;;;;5092572;28;19970;-61
2024/03/29 08:49:15;;;;;;;;;;;8.80;84.20;;;;;;5093065;28;19931;-61
2024/03/29 08:51:49;;;;;;;;;;;8.90;85.00;;;;;;5090252;28;19931;-62
2024/03/29 08:54:22;;;;;;;;;;;8.80;84.60;;;;;;5092239;28;19928;-62
2024/03/29 08:56:57;;;;;;;;;;;8.90;84.80;;;;;;5091829;28;19932;-61
2024/03/29 08:59:33;;;;;;;;;;;8.90;84.80;;;;;;5091937;28;19927;-62
2024/03/29 09:02:07;;;;;;;;;;;9.00;85.10;;;;;;5088240;28;20447;-62
2024/03/29 09:04:41;;;;;;;;;;;9.00;85.00;;;;;;5089895;28;19981;-61
2024/03/29 09:07:15;;;;;;;;;;;9.10;85.10;;;;;;5089900;28;19935;-62
2024/03/29 09:09:48;;;;;;;;;;;9.10;84.60;;;;;;5092375;28;19924;-60
2024/03/29 09:12:21;;;;;;;;;;;9.10;85.20;;;;;;5091054;28;19974;-61
2024/03/29 09:14:54;;;;;;;;;;;9.10;84.80;;;;;;5090115;28;20437;-61
2024/03/29 09:17:27;;;;;;;;;;;9.20;85.30;;;;;;5088921;28;21650;-61
2024/03/29 09:20:02;;;;;;;;;;;9.20;84.70;;;;;;5093285;28;20002;-64
2024/03/29 09:22:35;;;;;;;;;;;9.20;85.00;;;;;;5089912;28;20014;-62
2024/03/29 09:25:13;;;;;;;;;;;9.20;85.50;;;;;;5092054;28;20428;-63
2024/03/29 09:27:48;;;;;;;;;;;9.30;85.70;;;;;;5094959;28;19932;-63
2024/03/29 09:30:22;;;;;;;;;;;9.40;85.80;;;;;;5087793;28;20022;-63
2024/03/29 09:32:55;;;;;;;;;;;9.40;85.30;;;;;;5092592;28;19955;-61
2024/03/29 09:35:29;;;;;;;;;;;9.40;85.70;;;;;;5087582;28;19928;-61
2024/03/29 09:38:04;;;;;;;;;;;9.40;85.40;;;;;;5091037;28;19934;-63
2024/03/29 09:40:37;;;;;;;;;;;9.40;85.20;;;;;;5090828;28;19998;-62
2024/03/29 09:43:11;;;;;;;;;;;9.40;85.20;;;;;;5095360;28;20040;-60
2024/03/29 09:45:45;;;;;;;;;;;9.40;85.00;;;;;;5089921;28;19989;-62
2024/03/29 09:48:18;;;;;;;;;;;9.50;85.30;;;;;;5090658;28;19976;-62
2024/03/29 09:50:53;;;;;;;;;;;9.50;85.40;;;;;;5090850;28;19931;-62
2024/03/29 09:53:27;;;;;;;;;;;9.50;85.20;;;;;;5094533;28;19929;-64
2024/03/29 09:56:01;;;;;;;;;;;9.50;85.20;;;;;;5095417;28;20025;-63
2024/03/29 09:58:34;;;;;;;;;;;9.50;85.20;;;;;;5086692;28;19955;-64
2024/03/29 10:01:09;;;;;;;;;;;9.50;85.20;;;;;;5088512;28;20387;-61
2024/03/29 10:03:44;;;;;;;;;;;9.50;85.30;;;;;;5091483;28;20018;-62
2024/03/29 10:06:19;;;;;;;;;;;9.50;85.20;;;;;;5087853;28;19927;-62
2024/03/29 10:08:54;;;;;;;;;;;9.50;85.20;;;;;;5094324;28;19932;-61
2024/03/29 10:11:34;;;;;;;;;;;9.50;85.50;;;;;;5094076;28;19930;-62
2024/03/29 10:14:07;;;;;;;;;;;9.50;85.40;;;;;;5091576;28;20785;-61
2024/03/29 10:16:41;;;;;;;;;;;9.50;85.30;;;;;;5093128;28;20018;-63
2024/03/29 10:19:14;;;;;;;;;;;9.60;85.50;;;;;;5092574;28;19936;-63
2024/03/29 10:21:48;;;;;;;;;;;9.60;85.30;;;;;;5086618;28;19932;-62
2024/03/29 10:24:22;;;;;;;;;;;9.70;85.40;;;;;;5092998;28;19982;-64
2024/03/29 10:26:55;;;;;;;;;;;9.70;85.40;;;;;;5096184;28;20554;-62
2024/03/29 10:29:28;;;;;;;;;;;9.70;85.50;;;;;;5092513;28;19928;-61
2024/03/29 10:32:03;;;;;;;;;;;9.60;85.40;;;;;;5092581;28;19924;-61
2024/03/29 10:34:37;;;;;;;;;;;9.70;85.70;;;;;;5093334;28;19927;-61
2024/03/29 10:37:11;;;;;;;;;;;9.70;85.70;;;;;;5090823;28;20610;-61
2024/03/29 10:39:45;;;;;;;;;;;9.70;85.90;;;;;;5087835;28;19936;-63
2024/03/29 10:42:20;;;;;;;;;;;9.70;85.80;;;;;;5088918;28;19931;-61
2024/03/29 10:44:54;;;;;;;;;;;9.80;85.80;;;;;;5091651;28;19927;-61
2024/03/29 10:47:27;;;;;;;;;;;9.90;85.70;;;;;;5091638;28;19924;-61
2024/03/29 10:50:02;;;;;;;;;;;9.90;85.60;;;;;;5092925;28;19928;-61
2024/03/29 10:52:39;;;;;;;;;;;9.90;85.60;;;;;;5092789;28;19927;-61
2024/03/29 10:55:13;;;;;;;;;;;9.90;85.80;;;;;;5090321;28;20014;-61
2024/03/29 10:57:47;;;;;;;;;;;10.00;85.70;;;;;;5095947;28;19924;-61
2024/03/29 11:00:21;;;;;;;;;;;10.10;85.80;;;;;;5091197;28;22006;-60
2024/03/29 11:02:57;;;;;;;;;;;10.20;85.90;;;;;;5091381;28;20406;-62
2024/03/29 11:05:31;;;;;;;;;;;10.20;85.80;;;;;;5095422;28;19931;-61
2024/03/29 11:08:07;;;;;;;;;;;10.20;85.90;;;;;;5091760;28;19924;-62
2024/03/29 11:10:36;;;;;;;;;;;10.30;86.00;;;;;;5096372;28;19924;-62
2024/03/29 11:13:14;;;;;;;;;;;10.30;86.00;;;;;;5094004;28;19924;-61
2024/03/29 11:15:48;;;;;;;;;;;10.20;85.90;;;;;;5093694;28;20027;-61
2024/03/29 11:18:21;;;;;;;;;;;10.20;86.00;;;;;;5088922;28;19931;-61
2024/03/29 11:20:55;;;;;;;;;;;10.20;86.40;;;;;;5097244;28;19924;-61
2024/03/29 11:23:29;;;;;;;;;;;10.20;86.10;;;;;;5092230;28;19928;-62
2024/03/29 11:26:04;;;;;;;;;;;10.20;86.30;;;;;;5095016;28;19940;-62
2024/03/29 11:28:42;;;;;;;;;;;10.20;86.50;;;;;;5090898;28;19934;-62
2024/03/29 11:31:16;;;;;;;;;;;10.30;86.40;;;;;;5096754;28;19970;-61
2024/03/29 11:33:51;;;;;;;;;;;10.40;86.70;;;;;;5094102;28;20398;-60
2024/03/29 11:36:27;;;;;;;;;;;10.40;86.50;;;;;;5091060;28;19924;-62
2024/03/29 11:39:02;;;;;;;;;;;10.40;86.50;;;;;;5088799;28;19923;-61
2024/03/29 11:41:35;;;;;;;;;;;10.40;86.40;;;;;;5092754;28;20043;-60
2024/03/29 11:44:08;;;;;;;;;;;10.60;86.50;;;;;;5086889;28;19963;-61
2024/03/29 11:46:42;;;;;;;;;;;10.60;86.70;;;;;;5089680;28;19928;-62
2024/03/29 11:49:15;;;;;;;;;;;10.70;86.70;;;;;;5095033;28;20275;-61
2024/03/29 11:51:48;;;;;;;;;;;10.70;86.80;;;;;;5090084;28;20698;-60
2024/03/29 11:54:23;;;;;;;;;;;10.80;86.60;;;;;;5083213;28;19955;-60
2024/03/29 11:56:56;;;;;;;;;;;10.90;86.70;;;;;;5086050;28;19932;-62
2024/03/29 11:59:29;;;;;;;;;;;11.00;86.60;;;;;;5086876;28;20451;-61
2024/03/29 12:02:03;;;;;;;;;;;11.10;86.60;;;;;;5087678;28;19935;-62
2024/03/29 12:04:36;;;;;;;;;;;11.20;86.50;;;;;;5085556;28;20276;-62
2024/03/29 12:07:09;;;;;;;;;;;11.10;86.50;;;;;;5087657;28;19933;-61
2024/03/29 12:09:44;;;;;;;;;;;11.20;86.80;;;;;;5087914;28;19985;-62
2024/03/29 12:12:17;;;;;;;;;;;11.30;87.00;;;;;;5086383;28;21826;-62
2024/03/29 12:14:51;;;;;;;;;;;11.40;86.90;;;;;;5087318;28;19924;-62
2024/03/29 12:17:24;;;;;;;;;;;11.50;86.80;;;;;;5088233;28;20379;-62
2024/03/29 12:20:01;;;;;;;;;;;11.50;86.30;;;;;;5090060;28;19928;-61
2024/03/29 12:22:34;;;;;;;;;;;11.60;86.20;;;;;;5083043;28;19928;-62
2024/03/29 12:25:09;;;;;;;;;;;11.60;86.20;;;;;;5083929;28;19924;-60
2024/03/29 12:38:32;;;;;;;;;;;11.40;87.10;;;;;;4814837;28;7983092;-64
2024/03/29 12:41:13;;;;;;;;;;;11.40;87.20;;;;;;5090530;28;19925;-63
2024/03/29 12:43:53;;;;;;;;;;;11.40;87.40;;;;;;5089361;28;19932;-62
2024/03/29 12:46:27;;;;;;;;;;;11.40;87.50;;;;;;5087818;28;19924;-62
2024/03/29 12:49:00;;;;;;;;;;;11.40;87.70;;;;;;5096557;28;19928;-61
2024/03/29 12:51:28;;;;;;;;;;;11.40;87.80;;;;;;5087759;28;19969;-61
2024/03/29 12:54:03;;;;;;;;;;;11.50;87.70;;;;;;5088258;28;19930;-62
2024/03/29 12:56:40;;;;;;;;;;;11.50;87.70;;;;;;5091609;28;20305;-63
2024/03/29 12:59:14;;;;;;;;;;;11.50;87.80;;;;;;5086130;28;20015;-63
2024/03/29 13:01:48;;;;;;;;;;;11.40;87.70;;;;;;5090012;28;20443;-62
2024/03/29 13:04:21;;;;;;;;;;;11.40;87.90;;;;;;5089314;28;19927;-62
2024/03/29 13:06:54;;;;;;;;;;;11.40;87.90;;;;;;5091866;28;19928;-62
2024/03/29 13:09:28;;;;;;;;;;;11.40;88.00;;;;;;5093360;28;20003;-63
2024/03/29 13:12:03;;;;;;;;;;;11.40;87.80;;;;;;5085986;28;19924;-60
2024/03/29 13:14:36;;;;;;;;;;;11.40;87.90;;;;;;5094566;28;19928;-62
2024/03/29 13:17:10;;;;;;;;;;;11.40;88.00;;;;;;5084167;28;19985;-62
2024/03/29 13:19:43;;;;;;;;;;;11.40;87.90;;;;;;5087950;28;20324;-63
2024/03/29 13:22:18;;;;;;;;;;;11.40;88.00;;;;;;5076508;28;19957;-62
2024/03/29 13:28:28;;;;;;;;;;;11.40;87.70;;;;;;5093566;28;19968;-61
2024/03/29 13:31:02;;;;;;;;;;;11.40;88.20;;;;;;5092296;28;19924;-62
2024/03/29 13:33:35;;;;;;;;;;;11.40;88.60;;;;;;5090607;28;20010;-63
2024/03/29 13:36:08;;;;;;;;;;;11.40;88.60;;;;;;5092125;28;19934;-60
2024/03/29 13:38:41;;;;;;;;;;;11.40;88.60;;;;;;5089584;28;19967;-62
2024/03/29 13:41:16;;;;;;;;;;;11.50;88.60;;;;;;5086329;28;19924;-61
2024/03/29 13:43:52;;;;;;;;;;;11.40;88.80;;;;;;5094760;28;19924;-61
2024/03/29 13:46:25;;;;;;;;;;;11.40;88.50;;;;;;5084719;28;19928;-60
2024/03/29 13:48:58;;;;;;;;;;;11.50;88.90;;;;;;5076666;28;19927;-62
2024/03/29 13:51:32;;;;;;;;;;;11.50;89.00;;;;;;5087405;28;19924;-62
2024/03/29 13:54:05;;;;;;;;;;;11.50;89.00;;;;;;5096515;28;19931;-63
2024/03/29 13:56:38;;;;;;;;;;;11.50;89.40;;;;;;5097496;28;19938;-62
2024/03/29 13:59:12;;;;;;;;;;;11.60;89.40;;;;;;5098191;28;19927;-62
2024/03/29 14:01:46;;;;;;;;;;;11.60;89.60;;;;;;5098567;28;19928;-62
2024/03/29 14:04:19;;;;;;;;;;;11.50;89.20;;;;;;5096486;28;19923;-61
2024/03/29 14:06:52;;;;;;;;;;;11.50;89.50;;;;;;5098352;28;20018;-63
2024/03/29 14:09:26;;;;;;;;;;;11.60;89.40;;;;;;5097820;28;19923;-62
2024/03/29 14:11:59;;;;;;;;;;;11.60;89.70;;;;;;5092726;28;19924;-61
2024/03/29 14:14:34;;;;;;;;;;;11.60;89.70;;;;;;5093650;28;19928;-62
2024/03/29 14:17:08;;;;;;;;;;;11.60;89.40;;;;;;5095126;28;19942;-62
2024/03/29 14:19:41;;;;;;;;;;;11.70;89.40;;;;;;5095398;28;19928;-62
2024/03/29 14:22:15;;;;;;;;;;;11.70;89.50;;;;;;5087177;28;19924;-63
2024/03/29 14:24:48;;;;;;;;;;;11.70;89.30;;;;;;5095141;28;19930;-61
2024/03/29 14:27:23;;;;;;;;;;;11.70;89.20;;;;;;5096596;28;20408;-63
2024/03/29 14:29:59;;;;;;;;;;;11.70;89.20;;;;;;5096942;28;19973;-62
2024/03/29 14:32:32;;;;;;;;;;;11.70;89.40;;;;;;5095882;28;19938;-62
2024/03/29 14:35:05;;;;;;;;;;;11.70;89.40;;;;;;5101308;28;19928;-62
2024/03/29 14:37:38;;;;;;;;;;;11.70;89.30;;;;;;5100612;28;19961;-61
2024/03/29 14:40:14;;;;;;;;;;;11.70;89.30;;;;;;5096641;28;19924;-62
2024/03/29 14:42:47;;;;;;;;;;;11.70;89.40;;;;;;5100704;28;19924;-62
2024/03/29 14:45:22;;;;;;;;;;;11.70;89.60;;;;;;5099065;28;19931;-62
2024/03/29 14:47:55;;;;;;;;;;;11.70;89.20;;;;;;5100727;28;19942;-63
2024/03/29 14:50:29;;;;;;;;;;;11.70;89.20;;;;;;5099977;28;19928;-61
2024/03/29 14:53:02;;;;;;;;;;;11.70;89.60;;;;;;5101223;28;19924;-63
2024/03/29 14:55:39;;;;;;;;;;;11.70;89.60;;;;;;5096616;28;19927;-62
2024/03/29 14:58:12;;;;;;;;;;;11.70;89.40;;;;;;5101721;28;19924;-61
2024/03/29 15:00:47;;;;;;;;;;;11.70;89.60;;;;;;5100705;28;20394;-62
2024/03/29 15:03:20;;;;;;;;;;;11.70;89.60;;;;;;5100513;28;19977;-62
2024/03/29 15:05:53;;;;;;;;;;;11.70;89.60;;;;;;5098162;28;19931;-62
2024/03/29 15:08:26;;;;;;;;;;;11.80;89.50;;;;;;5101131;28;20271;-62
2024/03/29 15:10:59;;;;;;;;;;;11.80;89.60;;;;;;5099380;28;19951;-62
2024/03/29 15:13:32;;;;;;;;;;;11.80;89.60;;;;;;5100504;28;19924;-62
2024/03/29 15:16:07;;;;;;;;;;;11.80;89.50;;;;;;5097547;28;19923;-62
2024/03/29 15:18:40;;;;;;;;;;;11.90;89.50;;;;;;5088167;28;19928;-62
2024/03/29 15:21:13;;;;;;;;;;;11.90;89.40;;;;;;5098299;28;19927;-61
2024/03/29 15:23:46;;;;;;;;;;;11.90;89.00;;;;;;5095577;28;20298;-60
2024/03/29 15:26:20;;;;;;;;;;;11.90;89.20;;;;;;5100537;28;20022;-60
2024/03/29 15:29:07;;;;;;;;;;;11.90;89.20;;;;;;5101859;28;19959;-61
2024/03/29 15:31:43;;;;;;;;;;;11.90;88.90;;;;;;5098068;28;19935;-59
2024/03/29 15:34:16;;;;;;;;;;;11.80;89.00;;;;;;5100588;28;19963;-60
2024/03/29 15:36:49;;;;;;;;;;;11.80;88.90;;;;;;5101279;28;19928;-60
2024/03/29 15:39:19;;;;;;;;;;;11.80;88.70;;;;;;5100166;28;19932;-62
2024/03/29 15:41:52;;;;;;;;;;;11.70;88.70;;;;;;5095733;28;20000;-60
2024/03/29 15:44:25;;;;;;;;;;;11.70;88.70;;;;;;5099271;28;19927;-61
2024/03/29 15:46:59;;;;;;;;;;;11.70;88.70;;;;;;5100935;28;20057;-60
2024/03/29 15:49:33;;;;;;;;;;;11.70;88.70;;;;;;5097118;28;19938;-61
2024/03/29 15:52:07;;;;;;;;;;;11.70;88.70;;;;;;5098063;28;19923;-60
2024/03/29 15:54:40;;;;;;;;;;;11.60;88.60;;;;;;5100311;28;19924;-60
2024/03/29 15:57:13;;;;;;;;;;;11.60;88.80;;;;;;5095649;28;19924;-61
2024/03/29 15:59:47;;;;;;;;;;;11.60;88.80;;;;;;5099988;28;20433;-61
2024/03/29 16:02:22;;;;;;;;;;;11.60;88.80;;;;;;5099100;28;20423;-61
2024/03/29 16:04:55;;;;;;;;;;;11.60;88.70;;;;;;5100125;28;20005;-61
2024/03/29 16:07:22;;;;;;;;;;;11.60;88.60;;;;;;5098514;28;19935;-60
2024/03/29 16:10:01;;;;;;;;;;;11.60;88.60;;;;;;5099299;28;19959;-60
2024/03/29 16:12:34;;;;;;;;;;;11.60;88.60;;;;;;5094034;28;20413;-61
2024/03/29 16:15:08;;;;;;;;;;;11.60;88.80;;;;;;5096856;28;19924;-60
2024/03/29 16:17:43;;;;;;;;;;;11.50;88.70;;;;;;5099392;28;19927;-61
2024/03/29 16:20:15;;;;;;;;;;;11.50;88.90;;;;;;5098615;28;19931;-59
2024/03/29 16:22:48;;;;;;;;;;;11.50;88.90;;;;;;5099750;28;20533;-60
2024/03/29 16:25:20;;;;;;;;;;;11.60;88.80;;;;;;5098987;28;20375;-60
2024/03/29 16:27:55;;;;;;;;;;;11.60;88.90;;;;;;5097247;28;19935;-61
2024/03/29 16:30:27;;;;;;;;;;;11.60;88.90;;;;;;5097379;28;19924;-62
2024/03/29 16:33:02;;;;;;;;;;;11.60;88.90;;;;;;5094145;28;19928;-71
2024/03/29 16:35:34;;;;;;;;;;;11.60;88.80;;;;;;5099248;28;19962;-72
2024/03/29 16:38:14;;;;;;;;;;;11.60;88.70;;;;;;5098473;28;19928;-71
2024/03/29 16:40:46;;;;;;;;;;;11.70;88.80;;;;;;5099371;28;20388;-73
2024/03/29 16:43:19;;;;;;;;;;;11.70;88.80;;;;;;5079793;28;19924;-70
2024/03/29 16:45:51;;;;;;;;;;;11.60;88.80;;;;;;5096325;28;19924;-70
2024/03/29 16:48:19;;;;;;;;;;;11.60;88.80;;;;;;5099373;28;19923;-74
2024/03/29 16:50:51;;;;;;;;;;;11.60;88.90;;;;;;5093403;28;19999;-72
2024/03/29 16:53:24;;;;;;;;;;;11.60;89.00;;;;;;5098679;28;19972;-73
2024/03/29 16:55:56;;;;;;;;;;;11.60;89.10;;;;;;5095038;28;19924;-71
2024/03/29 16:58:29;;;;;;;;;;;11.60;89.10;;;;;;5097539;28;20398;-71
2024/03/29 17:01:09;;;;;;;;;;;11.60;89.00;;;;;;5093671;28;19950;-70
2024/03/29 17:03:44;;;;;;;;;;;11.60;89.10;;;;;;5097746;28;19924;-73